WEATHER DATA

YESTERDAY
Time Temp. Dewp. Hum. Wind dir Wind speed Wind gust Bar. 1h Prec. 24h Prec.
00:00 11.9 10.5 91 0 0.3 1017 0.0000 0.0000
00:10 11.9 10.5 91 0 0.3 1017.1 0.0000 0.0000
00:20 11.8 10.4 91 0 0.3 1017.1 0.0000 0.0000
00:30 11.8 10.5 92 0 0.3 1017.2 0.0000 0.0000
00:40 11.9 10.6 92 0 0.3 1017.2 0.0000 0.0000
00:50 12 10.7 92 0 0.3 1017.3 0.0000 0.0000
01:00 11.8 10.5 92 0 0.8 1017.3 0.0000 0.0000
01:11 11.4 10.1 92 315 0.3 0.8 1017.2 0.0000 0.0000
01:21 11 9.6 91 315 0.3 0.8 1017.2 0.0000 0.0000
01:30 10.8 9.4 91 270 0.3 0.8 1017.1 0.0000 0.0000
01:41 10.7 9.5 92 0 0.8 1017.1 0.0000 0.0000
01:51 10.7 9.5 92 270 0.3 0.8 1017 0.0000 0.0000
02:01 10.7 9.5 92 225 0.3 0.8 1017 0.0000 0.0000
02:11 10.9 9.7 92 230 0.3 0.8 1016.9 0.0000 0.0000
02:21 11.1 10 93 215 0.3 0.8 1016.9 0.0000 0.0000
02:31 11.3 10.2 93 23 0.3 0.8 1016.8 0.0000 0.0000
02:41 11.4 10.3 93 21 0.3 1.1 1016.8 0.0000 0.0000
02:51 11.5 10.4 93 5 0.3 1.1 1016.7 0.0000 0.0000
03:02 11.8 10.7 93 270 0.3 0.8 1016.6 0.0000 0.0000
03:11 12 10.9 93 0 0.3 1016.5 0.0000 0.0000
03:21 12.1 11 93 225 0.3 0.8 1016.4 0.0000 0.0000
03:32 12.2 11.1 93 0 0.3 1016.3 0.0000 0.0000
03:42 12.3 11.4 94 33 0.8 1.1 1016.2 0.0000 0.0000
03:52 12.5 11.6 94 17 0.8 1.4 1016.1 0.0000 0.0000
04:02 12.7 11.8 94 42 0.8 1.1 1016 0.0000 0.0000
04:12 13 12.1 94 42 0.8 1.1 1015.9 0.0000 0.0000
04:22 13.2 12.3 94 34 0.8 1.1 1015.9 0.0000 0.0000
04:32 13.4 12.5 94 37 0.8 1.4 1015.8 0.0000 0.0000
04:43 13.6 12.7 94 40 0.8 1.1 1015.7 0.0000 0.0000
04:52 13.7 12.8 94 40 0.8 1.1 1015.7 0.0000 0.0000
05:02 14 13.1 94 45 0.8 1.1 1015.5 0.0000 0.0000
05:12 14.1 13.1 94 30 0.8 1.1 1015.5 0.0000 0.0000
05:23 14.2 13.2 94 40 0.8 1.1 1015.4 0.0000 0.0000
05:33 14.2 13.2 94 32 0.8 1.4 1015.3 0.0000 0.0000
05:42 14.3 13.3 94 38 0.8 1.1 1015.3 0.0000 0.0000
05:53 14.4 13.4 94 37 0.8 1.1 1015.2 0.0000 0.0000
06:03 14.4 13.4 94 65 0.8 1.4 1015.3 0.0000 0.0000
06:13 14.4 13.4 94 45 0.8 1.1 1015.2 0.0000 0.0000
06:23 14.4 13.4 94 50 0.8 1.1 1015.2 0.0000 0.0000
06:33 14.4 13.4 94 53 0.8 1.1 1015.2 0.0000 0.0000
06:43 14.4 13.4 94 113 0.8 1.4 1015.2 0.0000 0.0000
06:53 14.4 13.4 94 113 0.8 1.1 1015.2 0.0000 0.0000
07:04 14.4 13.4 94 135 0.8 1.7 1015.2 0.0000 0.0000
07:14 14.4 13.4 94 147 0.8 1.4 1015.2 0.0000 0.0000
07:23 14.4 13.4 94 90 0.3 1.1 1015.2 0.0000 0.0000
07:33 14.4 13.4 94 90 0.3 1.4 1015.1 0.0000 0.0000
07:44 14.5 13.5 94 171 1.1 1.7 1015.1 0.0000 0.0000
07:54 14.7 13.7 94 167 1.4 2.2 1015.2 0.0000 0.0000
08:04 14.8 13.8 94 176 1.1 1.7 1015.2 0.0000 0.0000
08:06 14.9 13.9 94 177 1.1 1.7 1015.2 0.0000 0.0000
08:16 15 14 94 169 1.4 3.3 1015.1 0.0000 0.0000
08:26 15.1 14.1 94 171 1.4 2.5 1015.1 0.0000 0.0000
08:36 15.2 14.2 94 163 1.1 2.2 1015.1 0.0000 0.0000
08:46 15.3 14.3 94 162 1.1 1.7 1015.1 0.0000 0.0000
08:56 15.4 14.4 94 184 1.4 2.2 1015.1 0.0000 0.0000
09:07 15.4 14.4 94 185 1.4 2.5 1015.2 0.0000 0.0000
09:17 15.5 14.5 94 186 1.1 1.4 1015.2 0.1010 0.1000
09:26 15.5 14.5 94 175 1.1 1.4 1015.2 0.1010 0.1000
09:36 15.6 14.5 93 166 1.1 1.7 1015.2 0.1010 0.1000
09:47 15.7 14.6 93 175 0.8 1.4 1015.3 0.1010 0.1000
09:57 15.8 14.8 94 172 1.1 2.2 1015.2 0.1010 0.1000
10:14 16 15 94 178 1.4 2.5 1015.3 0.1010 0.2000
10:23 16.2 15.2 94 182 1.4 2.5 1015.3 0.1010 0.2000
10:29 16.2 15.1 93 177 1.7 2.8 1015.3 0.1010 0.2000
10:39 16.4 15.3 93 191 2.2 3.3 1015.3 0.1010 0.2000
10:49 16.8 15.7 93 188 2.2 3.6 1015.2 0.1010 0.2000
11:04 17.4 16.3 93 192 1.7 3.3 1015.3 0.1010 0.2000
11:14 17.5 16.2 92 183 2.2 3.3 1015.3 0.0000 0.2000
11:24 17.7 16.2 91 192 1.7 2.8 1015.3 0.0000 0.2000
11:34 18.1 16.4 90 199 2.2 3.9 1015.3 0.0000 0.2000
11:45 18.6 16.8 89 199 2.8 5 1015.3 0.0000 0.2000
11:55 19.3 16.9 86 203 2.2 3.6 1015.2 0.0000 0.2000
12:04 19.6 16.6 83 207 2.2 3.9 1015.2 0.0000 0.2000
12:15 19.6 16.6 83 203 2.2 3.6 1015.2 0.0000 0.2000
12:23 19.6 16.6 83 207 1.7 3.3 1015.1 0.0000 0.2000
12:33 19.5 16.5 83 205 1.4 3.3 1015.2 0.0000 0.2000
12:44 19.4 16.4 83 206 1.7 3.3 1015.2 0.0000 0.2000
12:53 19.5 16.3 82 192 0.8 2.2 1015.2 0.0000 0.2000
13:03 19.1 16.1 83 243 0.8 2.2 1015.2 0.0000 0.2000
13:14 18.8 16 84 288 0.8 2.5 1015.3 0.0000 0.2000
13:24 18.4 16 86 270 0.3 1.7 1015.3 0.0000 0.2000
13:34 18.1 16.1 88 191 0.3 1.1 1015.2 0.0000 0.2000
13:43 18.2 16.4 89 225 0.3 0.8 1015.3
13:54 18.3 16.6 90 225 0.3 1.4 1015.3 0.8080 1.0000
14:03 18.5 16.7 89 225 0.3 1.7 1015.2 0.8080 1.0000
14:13 18.7 16.9 89 270 0.8 1.4 1015.2 0.8080 1.0000
14:24 18.9 16.7 87 270 0.8 1.4 1015.1 0.8080 1.0000
14:34 19.3 16.7 85 203 0.8 3.3 1015.1 0.8080 1.0000
14:44 19.6 16.4 82 270 0.8 2.5 1015.1 0.8080 1.0000
14:53 19.7 16.4 81 315 0.8 2.8 1015.1 0.0000 1.0000
15:04 19.9 16.2 79 297 1.1 2.5 1015.1 0.0000 1.0000
15:14 20.1 15.9 77 290 0.8 2.2 1015.1 0.0000 1.0000
15:24 20 16.1 78 344 1.1 3.3 1015.1 0.0000 1.0000
15:35 20.3 16.3 78 315 0.8 2.2 1015.1 0.0000 1.0000
15:42 20.5 15.9 75 352 1.1 3.3 1015.1 0.0000 1.0000
15:52 20.7 16.1 75 270 0.8 2.2 1015 0.0000 1.0000
16:02 20.8 15.8 73 201 0.8 2.2 1014.9 0.0000 1.0000
16:12 20.7 15.5 72 343 1.1 2.2 1014.9 0.0000 1.0000
16:22 20.6 15.4 72 335 1.1 3.3 1014.8 0.0000 1.0000
16:33 20.6 15.6 73 343 0.8 2.5 1014.8 0.0000 1.0000
16:43 20.5 15.3 72 303 0.8 1.7 1014.8 0.0000 1.0000
16:52 20.5 15.5 73 270 0.8 2.2 1014.7 0.0000 1.0000
17:02 20.6 15.2 71 348 0.8 2.2 1014.8 0.0000 1.0000
17:13 20.5 15.3 72 343 0.8 1.7 1014.7 0.0000 1.0000
17:23 20.4 15 71 351 0.8 1.7 1014.8 0.0000 1.0000
17:33 20.2 15 72 352 1.1 2.2 1014.7 0.0000 1.0000
17:42 20.1 15.1 73 339 0.8 1.4 1014.7 0.0000 1.0000
17:53 20.2 15.4 74 352 1.1 2.5 1014.7 0.0000 1.0000
18:03 20 15.2 74 353 0.8 2.5 1014.7 0.0000 1.0000
18:07 19.9 15.1 74 355 0.8 2.8 1014.7 0.0000 1.0000
18:17 19.6 15.1 75 347 0.8 1.7 1014.8 0.0000 1.0000
18:26 19.5 15.2 76 352 0.8 1.7 1014.8 0.0000 1.0000
18:36 19.3 15 76 341 0.8 1.7 1014.6 0.0000 1.0000
18:47 19.2 15.1 77 354 0.3 1.1 1014.7 0.0000 1.0000
18:57 18.9 15 78 354 0.3 1.1 1014.6 0.0000 1.0000
19:07 18.6 14.7 78 335 0.3 1.1 1014.6 0.0000 1.0000
19:23 18.2 14.5 79 315 0.3 0.8 1014.7 0.0000 1.0000
19:33 17.7 14.2 80 326 0.3 0.8 1014.6 0.0000 1.0000
19:43 17.3 14.2 82 315 0.3 0.8 1014.7 0.0000 1.0000
19:53 16.9 14 83 232 0.3 0.8 1014.7 0.0000 1.0000
20:03 16.6 13.9 84 232 0.3 0.8 1014.8 0.0000 1.0000
20:12 16.2 13.7 85 270 0.3 0.3 1014.8 0.0000 1.0000
20:22 15.9 13.4 85 0 0.3 1014.9 0.0000 1.0000
20:32 15.6 13.3 86 0 0.3 1014.9 0.0000 1.0000
20:42 15.3 13.2 87 351 0.3 0.8 1015 0.0000 1.0000
20:52 15.3 13.3 88 14 0.3 0.8 1015.1 0.0000 1.0000
21:03 14.9 12.8 87 0 0.3 1015.1 0.0000 1.0000
21:12 14.6 12.3 86 0 0.3 1015.2 0.0000 1.0000
21:22 14.2 12.1 87 0 0.3 1015.2 0.0000 1.0000
21:31 14.1 12 87 0 0.3 1015.2 0.0000 1.0000
21:41 13.9 11.8 87 270 0.3 0.3 1015.3 0.0000 1.0000
21:50 13.6 11.7 88 338 0.3 0.8 1015.5 0.0000 1.0000
22:01 13.3 11.5 89 333 0.3 0.8 1015.6 0.0000 1.0000
22:11 13.4 12 91 353 0.3 0.8 1015.6 0.0000 1.0000
22:21 12.9 11.3 90 225 0.3 0.8 1015.7 0.0000 1.0000
22:31 12.7 11.1 90 213 0.3 0.8 1015.7 0.0000 1.0000
22:41 12.4 10.8 90 0 0.8 1015.7 0.0000 1.0000
22:51 12.2 10.6 90 0 0.3 1015.6 0.0000 1.0000
23:01 12.3 10.9 91 315 0.3 0.8 1015.8 0.0000 1.0000
23:12 12.1 10.5 90 0 0.3 1015.8 0.0000 1.0000
23:22 12.3 11 92 349 0.3 0.8 1015.7 0.0000 1.0000
23:31 12 10.6 91 0 0.3 1015.7 0.0000 1.0000
23:42 11.5 9.9 90 0 0.3 1015.7 0.0000 1.0000
23:52 11.3 9.7 90 0 0.3 1015.8 0.0000 1.0000

DAY STATISTIC

2021-09-17
TEMPERATURE
AVERAGE
15.8
HIGH
20.8
16:02
LOW
10.7
01:41
PRESSURE
AVERAGE
1015.5
HIGH
1017.3
00:50
LOW
1014.6
18:36
DEWPOINT
AVERAGE
13.6
HIGH
16.9
11:55
LOW
9.4
01:30
HUMIDITY
AVERAGE
88
HIGH
94
03:42
LOW
71
17:02
WIND SPEED
AVERAGE
0.7
HIGH
2.8
11:45
WIND GUST
AVERAGE
1.6
HIGH
5.0
11:45
WIND DIRECTION
PREVAILING
S
21.5%
N
17.4
NE
12.5
E
1.4
SE
2.8
S
21.5
SW
11.1
W
9.0
NW
9.0
PRECIPITATION
RAIN HOUR
0.8
RAIN DAY
1.0
TEMPERATURE (°C)
LOW
10.7
HIGH
20.8
AVERAGE
15.8
PRESSURE (hpa)
LOW
1014.6
HIGH
1017.3
AVERAGE
1015.5
DEVICE